Time;durP1;ratioP1;P1;durP2;ratioP2;P2;SDS_P1;SDS_P2;PMS_P1;PMS_P2;Temp;Humidity;BMP_temperature;BMP_pressure;BME280_temperature;BME280_humidity;BME280_pressure;Samples;Min_cycle;Max_cycle;Signal;HPM_P1;HPM_P2
2023/11/27 00:01:16;;;;;;;;;0.00;0.00;;;;;7.02;100.00;100992.13;5017549;28;45336;-87
2023/11/27 00:03:41;;;;;;;;;0.00;0.00;;;;;7.05;100.00;100986.91;5016844;28;68195;-87
2023/11/27 00:06:07;;;;;;;;;0.75;0.00;;;;;7.01;100.00;100995.56;5018900;28;45239;-88
2023/11/27 00:08:33;;;;;;;;;0.00;0.00;;;;;7.01;100.00;100987.81;5033975;28;47781;-88
2023/11/27 00:10:58;;;;;;;;;0.00;0.00;;;;;7.04;100.00;100976.56;5034287;28;46170;-87
2023/11/27 00:13:27;;;;;;;;;0.00;0.00;;;;;7.05;100.00;100971.38;5017029;28;61820;-87
2023/11/27 00:15:52;;;;;;;;;0.00;0.00;;;;;7.03;100.00;100980.88;5017335;28;58218;-87
2023/11/27 00:18:17;;;;;;;;;0.00;0.00;;;;;7.01;100.00;100985.22;5033096;28;65542;-87
2023/11/27 00:20:43;;;;;;;;;0.00;0.00;;;;;7.03;100.00;100977.44;5017489;28;45361;-87
2023/11/27 00:23:10;;;;;;;;;0.00;0.00;;;;;7.05;100.00;100973.09;5017353;28;45324;-87
2023/11/27 00:25:35;;;;;;;;;0.00;0.00;;;;;7.08;100.00;100975.66;5020129;28;45827;-86
2023/11/27 00:28:01;;;;;;;;;0.00;0.00;;;;;7.06;100.00;100967.06;5037053;28;46834;-88
2023/11/27 00:30:27;;;;;;;;;0.00;0.00;;;;;7.09;100.00;100967.88;5053849;28;45273;-87
2023/11/27 00:32:52;;;;;;;;;0.00;0.00;;;;;7.12;100.00;100959.22;5036946;28;45371;-87
2023/11/27 00:35:17;;;;;;;;;0.00;0.00;;;;;7.08;100.00;100953.22;5019689;28;63721;-87
2023/11/27 00:37:43;;;;;;;;;0.00;0.00;;;;;7.11;100.00;100957.50;5018997;28;73807;-87
2023/11/27 00:40:09;;;;;;;;;0.00;0.00;;;;;7.09;100.00;100957.50;5037090;28;45418;-88
2023/11/27 00:42:35;;;;;;;;;0.00;0.00;;;;;7.10;100.00;100950.63;5037594;28;45472;-87
2023/11/27 00:45:00;;;;;;;;;0.00;0.00;;;;;7.12;100.00;100948.88;5019354;28;71478;-87
2023/11/27 00:47:26;;;;;;;;;0.00;0.00;;;;;7.11;100.00;100947.16;5022210;28;57451;-87
2023/11/27 00:49:51;;;;;;;;;0.00;0.00;;;;;7.12;100.00;100949.72;5033107;28;57099;-87
2023/11/27 00:52:17;;;;;;;;;0.00;0.00;;;;;7.14;100.00;100936.75;5032506;28;60206;-87
2023/11/27 00:54:47;;;;;;;;;0.00;0.00;;;;;7.14;100.00;100923.81;5016041;28;61520;-87
2023/11/27 00:57:13;;;;;;;;;0.00;0.00;;;;;7.18;100.00;100923.75;5016382;28;45254;-87
2023/11/27 00:59:40;;;;;;;;;0.00;0.00;;;;;7.18;100.00;100917.72;5016861;28;45509;-86
2023/11/27 01:02:09;;;;;;;;;0.00;0.00;;;;;7.24;100.00;100907.28;5016155;28;45509;-86
2023/11/27 01:04:37;;;;;;;;;0.00;0.00;;;;;7.25;100.00;100901.25;5018043;28;45280;-87
2023/11/27 01:07:02;;;;;;;;;0.00;0.00;;;;;7.31;100.00;100905.50;5032459;28;48566;-86
2023/11/27 01:09:28;;;;;;;;;0.00;0.00;;;;;7.27;100.00;100896.91;5016039;28;45463;-87
2023/11/27 01:11:53;;;;;;;;;0.00;0.00;;;;;7.29;100.00;100896.88;5016918;28;45516;-88
2023/11/27 01:14:18;;;;;;;;;0.00;0.00;;;;;7.24;100.00;100881.38;5016123;28;55238;-86
2023/11/27 01:16:46;;;;;;;;;0.00;0.00;;;;;7.21;100.00;100878.88;5015900;28;45590;-87
2023/11/27 01:19:12;;;;;;;;;0.00;0.00;;;;;7.18;100.00;100869.38;5015626;28;45362;-87
2023/11/27 01:21:37;;;;;;;;;0.00;0.00;;;;;7.15;100.00;100865.97;5032619;28;45368;-86
2023/11/27 01:24:05;;;;;;;;;0.00;0.00;;;;;7.12;100.00;100855.69;5032806;28;51783;-86
2023/11/27 01:26:30;;;;;;;;;0.00;0.00;;;;;7.11;100.00;100854.84;5024887;28;47017;-86
2023/11/27 01:28:56;;;;;;;;;0.00;0.00;;;;;7.13;100.00;100850.50;5052687;28;45287;-86
2023/11/27 01:31:21;;;;;;;;;10.00;10.00;;;;;7.15;100.00;100843.56;5035980;28;54433;-86
2023/11/27 01:33:47;;;;;;;;;1.50;0.00;;;;;7.15;100.00;100840.97;5019006;28;45634;-87
2023/11/27 01:36:12;;;;;;;;;0.00;0.00;;;;;7.13;100.00;100847.03;5018547;28;66621;-87
2023/11/27 01:38:37;;;;;;;;;0.00;0.00;;;;;7.13;100.00;100840.13;5035794;28;45253;-87
2023/11/27 01:41:04;;;;;;;;;0.00;0.00;;;;;7.15;100.00;100842.69;5018894;28;64387;-87
2023/11/27 01:43:29;;;;;;;;;0.00;0.00;;;;;7.18;100.00;100834.88;5036099;28;45536;-87
2023/11/27 01:46:10;;;;;;;;;0.00;0.00;;;;;7.20;100.00;100842.63;5015391;28;47028;-87
2023/11/27 01:48:36;;;;;;;;;0.00;0.00;;;;;7.19;100.00;100834.00;5015888;28;45332;-87
2023/11/27 01:51:01;;;;;;;;;0.00;0.00;;;;;7.22;100.00;100833.09;5015685;28;45392;-87
2023/11/27 01:53:27;;;;;;;;;0.00;0.00;;;;;7.24;100.00;100831.34;5014905;28;64233;-86
2023/11/27 01:55:55;;;;;;;;;0.00;0.00;;;;;7.25;100.00;100830.50;5015884;28;46459;-86
2023/11/27 01:58:20;;;;;;;;;0.00;0.00;;;;;7.26;100.00;100820.13;5014809;28;73416;-86
2023/11/27 02:00:46;;;;;;;;;0.00;0.00;;;;;7.28;100.00;100820.06;4998465;28;71174;-86
2023/11/27 02:03:11;;;;;;;;;0.67;0.67;;;;;7.28;100.00;100812.28;5015749;28;46677;-86
2023/11/27 02:05:38;;;;;;;;;3.00;3.00;;;;;7.28;100.00;100818.34;5014854;28;47186;-86
2023/11/27 02:08:06;;;;;;;;;0.00;0.00;;;;;7.32;100.00;100807.06;5015240;28;45535;-85
2023/11/27 02:10:31;;;;;;;;;0.00;0.00;;;;;7.31;100.00;100802.75;5032200;28;45422;-86
2023/11/27 02:12:57;;;;;;;;;1.00;1.00;;;;;7.30;100.00;100801.06;5015253;28;56243;-87
2023/11/27 02:15:22;;;;;;;;;0.00;0.00;;;;;7.31;100.00;100800.16;5015116;28;58630;-86
2023/11/27 02:17:47;;;;;;;;;1.00;1.00;;;;;7.28;100.00;100789.00;5014621;28;66635;-86
2023/11/27 02:20:16;;;;;;;;;0.00;0.00;;;;;7.24;100.00;100777.81;5014359;28;61279;-86
2023/11/27 02:22:41;;;;;;;;;0.00;0.00;;;;;7.13;100.00;100770.25;5014435;28;68554;-86
2023/11/27 02:25:07;;;;;;;;;0.00;0.00;;;;;7.05;100.00;100763.44;5015133;28;72354;-85
2023/11/27 02:27:33;;;;;;;;;0.00;0.00;;;;;6.98;100.00;100763.53;5014701;28;45423;-84
2023/11/27 02:29:58;;;;;;;;;0.00;0.00;;;;;6.93;100.00;100754.13;5031857;28;45367;-85
2023/11/27 02:32:28;;;;;;;;;0.00;0.00;;;;;6.89;100.00;100753.31;5014305;28;64887;-84
2023/11/27 02:34:53;;;;;;;;;0.00;0.00;;;;;6.86;100.00;100744.75;5014132;28;47223;-85
2023/11/27 02:37:19;;;;;;;;;0.00;0.00;;;;;6.84;100.00;100749.94;5014440;28;62040;-85
2023/11/27 02:39:44;;;;;;;;;0.00;0.00;;;;;6.74;100.00;100744.03;5016168;28;45354;-86
2023/11/27 02:42:09;;;;;;;;;0.00;0.00;;;;;6.67;100.00;100737.22;5014648;28;60843;-86
2023/11/27 02:44:35;;;;;;;;;0.00;0.00;;;;;6.64;100.00;100732.06;5014482;28;48006;-85
2023/11/27 02:47:00;;;;;;;;;0.00;0.00;;;;;6.62;100.00;100723.47;5030652;28;70740;-85
2023/11/27 02:49:26;;;;;;;;;0.00;0.00;;;;;6.59;100.00;100718.34;5014273;28;45661;-86
2023/11/27 02:51:52;;;;;;;;;0.00;0.00;;;;;6.59;100.00;100716.63;5015199;28;45400;-85
2023/11/27 02:54:17;;;;;;;;;0.00;0.00;;;;;6.56;100.00;100706.31;5014418;28;67253;-85
2023/11/27 02:56:43;;;;;;;;;0.00;0.00;;;;;6.55;100.00;100694.25;5016287;28;45349;-85
2023/11/27 02:59:08;;;;;;;;;0.00;0.00;;;;;6.56;100.00;100690.78;5017087;28;70362;-85
2023/11/27 03:01:34;;;;;;;;;0.00;0.00;;;;;6.61;100.00;100685.53;5018087;28;45266;-85
2023/11/27 03:03:59;;;;;;;;;0.00;0.00;;;;;6.62;100.00;100681.25;5033261;28;64686;-85
2023/11/27 03:06:27;;;;;;;;;0.00;0.00;;;;;6.68;100.00;100673.41;5018151;28;45379;-85
2023/11/27 03:08:53;;;;;;;;;0.00;0.00;;;;;6.65;100.00;100666.53;5017789;28;45321;-85
2023/11/27 03:11:18;;;;;;;;;0.00;0.00;;;;;6.72;100.00;100678.53;5018776;28;45408;-85
2023/11/27 03:13:46;;;;;;;;;0.00;0.00;;;;;6.76;100.00;100677.59;5018143;28;46294;-85
2023/11/27 03:16:12;;;;;;;;;0.00;0.00;;;;;6.77;100.00;100671.53;5017897;28;66317;-85
2023/11/27 03:18:37;;;;;;;;;0.00;0.00;;;;;6.82;100.00;100660.28;5018221;28;45324;-85
2023/11/27 03:21:06;;;;;;;;;0.00;0.00;;;;;6.84;100.00;100650.75;5017416;28;57313;-85
2023/11/27 03:23:31;;;;;;;;;0.00;0.00;;;;;6.87;100.00;100655.88;5018786;28;46315;-85
2023/11/27 03:25:57;;;;;;;;;0.00;0.00;;;;;6.90;100.00;100655.84;5016576;28;65494;-85
2023/11/27 03:28:23;;;;;;;;;0.00;0.00;;;;;6.88;100.00;100648.09;5017967;28;45422;-85
2023/11/27 03:30:48;;;;;;;;;0.00;0.00;;;;;6.90;100.00;100650.66;5017328;28;52479;-85
2023/11/27 03:33:13;;;;;;;;;0.00;0.00;;;;;6.86;100.00;100636.06;5017278;28;46329;-85
2023/11/27 03:35:38;;;;;;;;;0.00;0.00;;;;;6.82;100.00;100629.22;4999719;28;66210;-86
2023/11/27 03:38:05;;;;;;;;;0.00;0.00;;;;;6.82;100.00;100617.16;4999846;28;64264;-85
2023/11/27 03:40:30;;;;;;;;;0.00;0.00;;;;;6.81;100.00;100604.22;5017254;28;45597;-85
2023/11/27 03:42:56;;;;;;;;;0.00;0.00;;;;;6.79;100.00;100599.06;5016132;28;71143;-86
2023/11/27 03:45:21;;;;;;;;;0.00;0.00;;;;;6.76;100.00;100587.03;5017474;28;48093;-84
2023/11/27 03:47:46;;;;;;;;;0.00;0.00;;;;;6.76;100.00;100597.41;5016365;28;59994;-85
2023/11/27 03:50:12;;;;;;;;;1.00;1.00;;;;;6.70;100.00;100587.13;4999852;28;65367;-85
2023/11/27 03:52:37;;;;;;;;;0.00;0.00;;;;;6.64;100.00;100587.22;5016673;28;46619;-85
2023/11/27 03:55:03;;;;;;;;;0.00;0.00;;;;;6.59;100.00;100569.22;5016004;28;74214;-85
2023/11/27 03:57:28;;;;;;;;;0.00;0.00;;;;;6.52;100.00;100558.94;5017989;28;45376;-85
2023/11/27 03:59:54;;;;;;;;;0.00;0.00;;;;;6.49;100.00;100553.84;5000242;28;45544;-85
2023/11/27 04:02:19;;;;;;;;;0.00;0.00;;;;;6.47;100.00;100553.00;5000112;28;47361;-85
2023/11/27 04:04:44;;;;;;;;;0.00;0.00;;;;;6.37;100.00;100532.47;5016284;28;52666;-84
2023/11/27 04:07:11;;;;;;;;;0.00;0.00;;;;;6.31;100.00;100532.53;5016793;28;45320;-86
2023/11/27 04:09:37;;;;;;;;;0.00;0.00;;;;;6.27;100.00;100535.19;5017188;28;45279;-85
2023/11/27 04:12:05;;;;;;;;;0.00;0.00;;;;;6.26;100.00;100536.94;5016577;28;45424;-86
2023/11/27 04:14:30;;;;;;;;;0.00;0.00;;;;;6.23;100.00;100536.13;5032757;28;45529;-86
2023/11/27 04:16:59;;;;;;;;;0.00;0.00;;;;;6.19;100.00;100535.31;5017016;28;45509;-86
2023/11/27 04:19:27;;;;;;;;;0.00;0.00;;;;;6.12;100.00;100526.78;5000316;28;45379;-86
2023/11/27 04:21:53;;;;;;;;;0.00;0.00;;;;;6.05;100.00;100517.41;5016825;28;46205;-87
2023/11/27 04:24:22;;;;;;;;;0.00;0.00;;;;;6.03;100.00;100514.00;5016603;28;45756;-85
2023/11/27 04:26:47;;;;;;;;;0.00;0.00;;;;;5.95;100.00;100506.34;5010621;28;65196;-85
2023/11/27 04:29:15;;;;;;;;;0.00;0.00;;;;;5.92;100.00;100505.50;5019634;28;45305;-86
2023/11/27 04:31:44;;;;;;;;;0.00;0.00;;;;;5.87;100.00;100505.56;5036477;28;46444;-85
2023/11/27 04:34:09;;;;;;;;;0.00;0.00;;;;;5.85;100.00;100507.31;5035382;28;66984;-86
2023/11/27 04:36:35;;;;;;;;;0.00;0.00;;;;;5.84;100.00;100505.59;5019865;28;45344;-85
2023/11/27 04:39:00;;;;;;;;;3.00;3.00;;;;;5.77;100.00;100511.72;5036665;28;45367;-86
2023/11/27 04:41:29;;;;;;;;;0.00;0.00;;;;;5.78;100.00;100501.38;5036454;28;47043;-86
2023/11/27 04:43:54;;;;;;;;;0.00;0.00;;;;;5.75;100.00;100498.81;5035616;28;59801;-87
2023/11/27 04:46:19;;;;;;;;;0.00;0.00;;;;;5.75;100.00;100485.91;5053223;28;53567;-86
2023/11/27 04:48:45;;;;;;;;;0.00;0.00;;;;;5.77;100.00;100484.16;5018857;28;66780;-86
2023/11/27 04:51:11;;;;;;;;;0.00;0.00;;;;;5.80;100.00;100470.38;5036558;28;46173;-86
2023/11/27 04:53:36;;;;;;;;;0.00;0.00;;;;;5.83;100.00;100465.13;5019494;28;45990;-86
2023/11/27 04:56:01;;;;;;;;;0.00;0.00;;;;;5.79;100.00;100463.47;5036294;28;45863;-86
2023/11/27 04:58:27;;;;;;;;;0.00;0.00;;;;;5.80;100.00;100452.28;5019380;28;45589;-85
2023/11/27 05:00:52;;;;;;;;;0.00;0.00;;;;;5.78;100.00;100441.97;5036001;28;46087;-85
2023/11/27 05:03:17;;;;;;;;;0.00;0.00;;;;;5.80;100.00;100434.19;5018644;28;61797;-86
2023/11/27 05:05:43;;;;;;;;;0.00;0.00;;;;;5.89;100.00;100425.44;5035584;28;57605;-86
2023/11/27 05:08:08;;;;;;;;;0.00;0.00;;;;;5.91;100.00;100415.97;5036719;28;45451;-85
2023/11/27 05:10:38;;;;;;;;;0.00;0.00;;;;;5.91;100.00;100413.38;5018363;28;73572;-86
2023/11/27 05:13:06;;;;;;;;;0.00;0.00;;;;;5.96;100.00;100411.59;5019934;28;45686;-86
2023/11/27 05:15:34;;;;;;;;;0.00;0.00;;;;;5.94;100.00;100415.91;5037153;28;45728;-88
2023/11/27 05:17:59;;;;;;;;;0.00;0.00;;;;;6.00;100.00;100418.44;5036323;28;45340;-86
2023/11/27 05:20:25;;;;;;;;;0.75;0.75;;;;;5.98;100.00;100412.44;5034829;28;47225;-87
2023/11/27 05:22:53;;;;;;;;;0.00;0.00;;;;;5.98;100.00;100404.69;5019000;28;45372;-87
2023/11/27 05:25:18;;;;;;;;;0.00;0.00;;;;;5.99;100.00;100407.25;5035752;28;45416;-86
2023/11/27 05:27:44;;;;;;;;;0.00;0.00;;;;;6.02;100.00;100403.78;5017814;28;68820;-86
2023/11/27 05:30:10;;;;;;;;;0.00;0.00;;;;;6.04;100.00;100394.25;5035933;28;46311;-86
2023/11/27 05:32:37;;;;;;;;;0.00;0.00;;;;;6.08;100.00;100392.50;5035730;28;45352;-86
2023/11/27 05:35:03;;;;;;;;;0.00;0.00;;;;;6.08;100.00;100383.00;5018963;28;54540;-86
2023/11/27 05:37:28;;;;;;;;;0.00;0.00;;;;;6.09;100.00;100376.09;5019585;28;45252;-87
2023/11/27 05:39:54;;;;;;;;;0.00;0.00;;;;;6.11;100.00;100374.31;5019350;28;47288;-86
2023/11/27 05:42:26;;;;;;;;;0.00;0.00;;;;;6.12;100.00;100376.06;5035237;28;45380;-87
2023/11/27 05:44:52;;;;;;;;;0.00;0.00;;;;;6.13;100.00;100377.75;5020005;28;45308;-87
2023/11/27 05:47:18;;;;;;;;;0.00;0.00;;;;;6.13;100.00;100377.75;5035804;28;45259;-88
2023/11/27 05:49:43;;;;;;;;;0.00;0.00;;;;;6.12;100.00;100366.56;5036917;28;45408;-87
2023/11/27 05:52:11;;;;;;;;;0.00;0.00;;;;;6.12;100.00;100358.81;5036076;28;46042;-87
2023/11/27 05:54:36;;;;;;;;;0.00;0.00;;;;;6.14;100.00;100361.38;5052504;28;45385;-87
2023/11/27 05:57:02;;;;;;;;;0.00;0.00;;;;;6.17;100.00;100362.16;5018860;28;45406;-87
2023/11/27 05:59:28;;;;;;;;;0.00;0.00;;;;;6.22;100.00;100351.75;5019118;28;47015;-87
2023/11/27 06:01:53;;;;;;;;;0.75;0.75;;;;;6.25;100.00;100345.69;5035558;28;45868;-86
2023/11/27 06:04:21;;;;;;;;;1.00;1.00;;;;;6.29;100.00;100340.41;5036028;28;45473;-87
2023/11/27 06:06:47;;;;;;;;;0.00;0.00;;;;;6.33;100.00;100346.38;5018731;28;66654;-88
2023/11/27 06:09:15;;;;;;;;;0.00;0.00;;;;;6.36;100.00;100347.19;5019195;28;47169;-88
2023/11/27 06:11:41;;;;;;;;;0.00;0.00;;;;;6.37;100.00;100335.09;5035107;28;45395;-87
2023/11/27 06:14:07;;;;;;;;;0.00;0.00;;;;;6.35;100.00;100326.53;5053030;28;45322;-88
2023/11/27 06:16:32;;;;;;;;;0.00;0.00;;;;;6.37;100.00;100328.22;5019168;28;45519;-87
2023/11/27 06:18:58;;;;;;;;;0.00;0.00;;;;;6.38;100.00;100332.50;5035671;28;46215;-88
2023/11/27 06:21:23;;;;;;;;;0.00;0.00;;;;;6.37;100.00;100327.34;5035740;28;45306;-87
2023/11/27 06:23:51;;;;;;;;;0.00;0.00;;;;;6.42;100.00;100328.13;5035670;28;45700;-87
2023/11/27 06:26:17;;;;;;;;;0.00;0.00;;;;;6.46;100.00;100323.75;5012013;28;45461;-86
2023/11/27 06:28:42;;;;;;;;;3.00;3.00;;;;;6.45;100.00;100315.16;4998690;28;48443;-87
2023/11/27 06:31:07;;;;;;;;;1.00;1.00;;;;;6.46;100.00;100313.41;5015124;28;60520;-87
2023/11/27 06:33:33;;;;;;;;;0.00;0.00;;;;;6.47;100.00;100313.38;5018836;28;45202;-87
2023/11/27 06:35:58;;;;;;;;;3.00;3.00;;;;;6.48;100.00;100304.78;5018504;28;63524;-87
2023/11/27 06:38:25;;;;;;;;;0.00;0.00;;;;;6.48;100.00;100294.44;5020339;28;45483;-88
2023/11/27 06:40:50;;;;;;;;;0.00;0.00;;;;;6.54;100.00;100291.72;5018398;28;45436;-84
2023/11/27 06:43:16;;;;;;;;;3.00;3.00;;;;;6.54;100.00;100289.13;5018113;28;53570;-85
2023/11/27 06:45:44;;;;;;;;;0.00;0.00;;;;;6.54;100.00;100290.88;5001056;28;59235;-87
2023/11/27 06:48:09;;;;;;;;;0.00;0.00;;;;;6.56;100.00;100278.75;5019378;28;45465;-87
2023/11/27 06:50:35;;;;;;;;;0.00;0.00;;;;;6.57;100.00;100288.19;5019545;28;45288;-85
2023/11/27 06:53:00;;;;;;;;;0.00;0.00;;;;;6.64;100.00;100273.44;5018350;28;47155;-84
2023/11/27 06:55:27;;;;;;;;;0.00;0.00;;;;;6.66;100.00;100267.31;5018022;28;45913;-85
2023/11/27 06:57:53;;;;;;;;;0.00;0.00;;;;;6.69;100.00;100258.69;5018169;28;46514;-87
2023/11/27 07:00:18;;;;;;;;;0.00;0.00;;;;;6.72;100.00;100263.75;5001931;28;45616;-87
2023/11/27 07:02:44;;;;;;;;;0.00;0.00;;;;;6.67;100.00;100263.88;5019321;28;45241;-85
2023/11/27 07:05:10;;;;;;;;;0.00;0.00;;;;;6.68;100.00;100259.53;5018473;28;45468;-87
2023/11/27 07:07:35;;;;;;;;;1.00;1.00;;;;;6.67;100.00;100263.03;5017884;28;46370;-86
2023/11/27 07:10:02;;;;;;;;;0.00;0.00;;;;;6.64;100.00;100256.16;5016827;28;72648;-86
2023/11/27 07:12:27;;;;;;;;;0.00;0.00;;;;;6.70;100.00;100239.66;5034593;28;45408;-86
2023/11/27 07:14:53;;;;;;;;;0.00;0.00;;;;;6.70;100.00;100245.69;5034639;28;45363;-86
2023/11/27 07:17:19;;;;;;;;;0.00;0.00;;;;;6.73;100.00;100232.69;5016820;28;63314;-85
2023/11/27 07:19:45;;;;;;;;;0.50;0.50;;;;;6.75;100.00;100230.09;5016755;28;45448;-85
2023/11/27 07:22:13;;;;;;;;;0.00;0.00;;;;;6.75;100.00;100230.94;5017808;28;45411;-86
2023/11/27 07:24:38;;;;;;;;;0.00;0.00;;;;;6.74;100.00;100224.06;5017318;28;46063;-86
2023/11/27 07:27:04;;;;;;;;;1.00;1.00;;;;;6.69;100.00;100233.66;5000210;28;46897;-87
2023/11/27 07:29:30;;;;;;;;;0.00;0.00;;;;;6.76;100.00;100230.06;5017203;28;45871;-83
2023/11/27 07:31:55;;;;;;;;;0.00;0.00;;;;;6.76;100.00;100232.66;5018508;28;45366;-85
2023/11/27 07:34:21;;;;;;;;;0.00;0.00;;;;;6.81;100.00;100217.00;5018355;28;45649;-83
2023/11/27 07:36:47;;;;;;;;;0.00;0.00;;;;;6.84;100.00;100221.28;5018040;28;45571;-84
2023/11/27 07:39:12;;;;;;;;;0.00;0.00;;;;;6.86;100.00;100209.16;5016413;28;45371;-83
2023/11/27 07:41:38;;;;;;;;;0.00;0.00;;;;;6.88;100.00;100218.59;5016320;28;63281;-84
2023/11/27 07:44:03;;;;;;;;;0.00;0.00;;;;;6.87;100.00;100214.31;5016541;28;45690;-84
2023/11/27 07:46:28;;;;;;;;;0.00;0.00;;;;;6.86;100.00;100204.84;5033217;28;47955;-86
2023/11/27 07:48:54;;;;;;;;;0.00;0.00;;;;;6.92;100.00;100199.50;5017276;28;45383;-84
2023/11/27 07:51:20;;;;;;;;;0.00;0.00;;;;;6.97;100.00;100189.91;5016497;28;45342;-82
2023/11/27 07:53:47;;;;;;;;;0.00;0.00;;;;;6.98;100.00;100178.69;5018331;28;45658;-84
2023/11/27 07:56:12;;;;;;;;;0.00;0.00;;;;;7.00;100.00;100173.44;5000751;28;47769;-84
2023/11/27 07:58:48;;;;;;;;;0.00;0.00;;;;;6.98;100.00;100173.50;5016472;28;45411;-87
2023/11/27 08:01:16;;;;;;;;;1.00;1.00;;;;;6.95;100.00;100176.16;4999744;28;45545;-85
2023/11/27 08:03:41;;;;;;;;;0.00;0.00;;;;;6.99;100.00;100171.78;5016467;28;46632;-88
2023/11/27 08:06:09;;;;;;;;;0.00;0.00;;;;;7.06;100.00;100177.66;5000789;28;47306;-87
2023/11/27 08:08:34;;;;;;;;;0.00;0.00;;;;;7.08;100.00;100171.56;5018289;28;45409;-85
2023/11/27 08:11:04;;;;;;;;;0.00;0.00;;;;;7.10;100.00;100169.78;5017110;28;45745;-86
2023/11/27 08:13:32;;;;;;;;;0.00;0.00;;;;;7.13;100.00;100161.94;5017190;28;45509;-85
2023/11/27 08:15:58;;;;;;;;;0.00;0.00;;;;;7.14;100.00;100148.09;5018418;28;46405;-89
2023/11/27 08:18:26;;;;;;;;;0.00;0.00;;;;;7.22;100.00;100150.50;5018033;28;45422;-86
2023/11/27 08:21:01;;;;;;;;;0.00;0.00;;;;;7.20;100.00;100159.22;5016786;28;45688;-86
2023/11/27 08:23:27;;;;;;;;;0.00;0.00;;;;;7.21;100.00;100156.59;5018346;28;45447;-88
2023/11/27 08:25:52;;;;;;;;;0.00;0.00;;;;;7.20;100.00;100146.25;5019018;28;45646;-88
2023/11/27 08:28:21;;;;;;;;;0.00;0.00;;;;;7.20;100.00;100131.56;5017755;28;45336;-87
2023/11/27 08:30:46;;;;;;;;;0.00;0.00;;;;;7.24;100.00;100129.75;5017387;28;45265;-88
2023/11/27 08:33:12;;;;;;;;;0.00;0.00;;;;;7.20;100.00;100113.47;5016730;28;45443;-84
2023/11/27 08:35:37;;;;;;;;;0.00;0.00;;;;;7.22;100.00;100116.00;5014561;28;74391;-87
2023/11/27 08:38:04;;;;;;;;;0.00;0.00;;;;;7.20;100.00;100113.47;5032669;28;45339;-86
2023/11/27 08:40:29;;;;;;;;;0.00;0.00;;;;;7.22;100.00;100116.00;5016690;28;45387;-86
2023/11/27 08:42:54;;;;;;;;;0.00;0.00;;;;;7.26;100.00;100125.41;5016225;28;45498;-87
2023/11/27 08:45:20;;;;;;;;;0.00;0.00;;;;;7.24;100.00;100117.66;5016434;28;66009;-91
2023/11/27 08:47:52;;;;;;;;;0.00;0.00;;;;;7.29;100.00;100109.78;5016126;28;45360;-89
2023/11/27 08:50:28;;;;;;;;;0.00;0.00;;;;;7.31;100.00;100102.84;5018304;28;45511;-93
2023/11/27 08:53:07;;;;;;;;;0.00;0.00;;;;;7.35;100.00;100099.28;5017594;28;45354;-89
2023/11/27 08:56:14;;;;;;;;;0.00;0.00;;;;;7.36;100.00;100103.56;5002411;28;48340;-94
2023/11/27 08:58:42;;;;;;;;;0.00;0.00;;;;;7.38;100.00;100085.41;4920270;28;45381;-91
2023/11/27 09:01:08;;;;;;;;;0.00;0.00;;;;;7.40;100.00;100075.88;4903839;28;56972;-88
2023/11/27 09:03:39;;;;;;;;;0.00;0.00;;;;;7.42;100.00;100071.50;4919154;28;45458;-91
2023/11/27 09:06:05;;;;;;;;;0.00;0.00;;;;;7.41;100.00;100067.19;4918322;28;45490;-87
2023/11/27 09:08:31;;;;;;;;;0.00;0.00;;;;;7.44;100.00;100065.38;4930092;28;45568;-86
2023/11/27 09:11:31;;;;;;;;;0.00;0.00;;;;;7.47;100.00;100061.88;4940667;28;45465;-94
2023/11/27 09:18:43;;;;;;;;;;;;;;;;;;;;;
2023/11/27 09:21:36;;;;;;;;;;;;;;;;;;;;;
2023/11/27 09:24:51;;;;;;;;;0.00;0.00;;;;;7.63;100.00;100041.56;4857233;29;68137;-93
2023/11/27 09:31:22;;;;;;;;;0.00;0.00;;;;;7.60;100.00;100031.31;4846120;29;45410;-96
2023/11/27 09:54:12;;;;;;;;;0.00;0.00;;;;;7.63;100.00;100005.28;5730184;22;46926;-96
2023/11/27 09:57:02;;;;;;;;;0.00;0.00;;;;;7.62;100.00;99993.25;5056768;28;47447;-90
2023/11/27 10:51:35;;;;;;;;;1.00;1.00;;;;;7.41;100.00;99902.34;6016124;22;46938;-85
2023/11/27 10:57:22;;;;;;;;;0.00;0.00;;;;;7.41;100.00;99891.13;5052391;28;45283;-91
2023/11/27 12:04:27;;;;;;;;;;;;;;;;;;;;;
2023/11/27 12:06:55;;;;;;;;;0.00;0.00;;;;;8.19;100.00;99764.28;5853519;24;72976;-88
2023/11/27 12:09:22;;;;;;;;;0.00;0.00;;;;;8.18;100.00;99759.16;5850320;24;45300;-86
2023/11/27 12:11:48;;;;;;;;;0.00;0.00;;;;;8.25;100.00;99756.28;5849251;24;45462;-86
2023/11/27 12:14:18;;;;;;;;;0.00;0.00;;;;;8.28;100.00;99744.94;5849639;24;46508;-87
2023/11/27 12:16:46;;;;;;;;;0.00;0.00;;;;;8.25;100.00;99732.09;5851186;24;45398;-88
2023/11/27 12:19:12;;;;;;;;;0.00;0.00;;;;;8.31;100.00;99727.53;5872659;24;45538;-87
2023/11/27 12:21:37;;;;;;;;;0.00;0.00;;;;;8.34;100.00;99727.44;5872832;24;45207;-87
2023/11/27 12:24:05;;;;;;;;;0.00;0.00;;;;;8.39;100.00;99726.41;5884196;24;50168;-86
2023/11/27 12:26:31;;;;;;;;;0.00;0.00;;;;;8.37;100.00;99723.03;5927650;24;45363;-88
2023/11/27 12:28:56;;;;;;;;;0.00;0.00;;;;;8.46;100.00;99713.19;5904281;24;45531;-87
2023/11/27 12:31:22;;;;;;;;;0.00;0.00;;;;;8.44;100.00;99711.56;5924210;24;45320;-88
2023/11/27 12:33:48;;;;;;;;;0.00;0.00;;;;;8.46;100.00;99695.03;5961425;23;46972;-87
2023/11/27 12:36:15;;;;;;;;;0.00;0.00;;;;;8.44;100.00;99689.06;6028187;23;45408;-87
2023/11/27 12:38:41;;;;;;;;;0.00;0.00;;;;;8.48;100.00;99684.63;6242747;22;45302;-87
2023/11/27 12:41:07;;;;;;;;;0.00;0.00;;;;;8.53;100.00;99680.94;6253606;22;45235;-85
2023/11/27 12:43:36;;;;;;;;;0.00;0.00;;;;;8.58;100.00;99669.56;6273143;22;48199;-86
2023/11/27 12:46:14;;;;;;;;;0.00;0.00;;;;;8.60;100.00;99675.53;6274642;22;45552;-86
2023/11/27 12:48:44;;;;;;;;;0.00;0.00;;;;;8.58;100.00;99659.19;6246559;22;45247;-86
2023/11/27 12:51:13;;;;;;;;;0.00;0.00;;;;;8.60;100.00;99662.56;6271457;22;45301;-84
2023/11/27 12:53:47;;;;;;;;;0.00;0.00;;;;;8.56;100.00;99659.22;6268430;22;46231;-83
2023/11/27 12:56:13;;;;;;;;;0.00;0.00;;;;;8.56;100.00;99655.81;6246898;22;45772;-83
2023/11/27 12:58:39;;;;;;;;;0.00;0.00;;;;;8.59;100.00;99640.13;6273315;22;45275;-85
2023/11/27 13:01:05;;;;;;;;;0.00;0.00;;;;;8.63;100.00;99636.50;6246856;22;45319;-84
2023/11/27 13:03:30;;;;;;;;;0.00;0.00;;;;;8.69;100.00;99636.25;6298731;22;48088;-85
2023/11/27 13:05:59;;;;;;;;;0.00;0.00;;;;;8.72;100.00;99630.97;6245992;22;63675;-85
2023/11/27 13:08:25;;;;;;;;;0.00;0.00;;;;;8.79;100.00;99626.41;6273542;22;45442;-85
2023/11/27 13:10:52;;;;;;;;;0.00;0.00;;;;;8.83;100.00;99623.59;6272808;22;45317;-84
2023/11/27 13:13:21;;;;;;;;;0.00;0.00;;;;;8.84;100.00;99620.13;6246812;22;47264;-83
2023/11/27 13:15:53;;;;;;;;;0.00;0.00;;;;;8.84;100.00;99611.47;6274586;22;45172;-84
2023/11/27 13:18:19;;;;;;;;;0.00;0.00;;;;;8.84;100.00;99601.09;6274648;22;45303;-83
2023/11/27 13:20:48;;;;;;;;;0.00;0.00;;;;;8.93;100.00;99613.69;6272343;22;45453;-84
2023/11/27 13:23:15;;;;;;;;;0.00;0.00;;;;;8.93;100.00;99600.72;6272209;22;46035;-83
2023/11/27 13:25:41;;;;;;;;;0.00;0.00;;;;;8.92;100.00;99591.25;6298038;22;45760;-83
2023/11/27 13:28:08;;;;;;;;;0.00;0.00;;;;;8.95;100.00;99592.88;6272603;22;45266;-82
2023/11/27 13:30:35;;;;;;;;;0.00;0.00;;;;;8.99;100.00;99584.03;6246225;22;45284;-83
2023/11/27 13:33:09;;;;;;;;;0.25;0.25;;;;;9.03;100.00;99581.28;6272388;22;46472;-82
2023/11/27 13:35:35;;;;;;;;;0.00;0.00;;;;;9.04;100.00;99569.97;6271764;22;45405;-83
2023/11/27 13:38:02;;;;;;;;;0.00;0.00;;;;;9.07;100.00;99576.81;6273480;22;45261;-83
2023/11/27 13:40:35;;;;;;;;;0.00;0.00;;;;;9.12;100.00;99567.09;6271544;22;45261;-83
2023/11/27 13:43:08;;;;;;;;;0.00;0.00;;;;;9.15;100.00;99559.16;6297841;22;47133;-83
2023/11/27 13:45:33;;;;;;;;;0.00;0.00;;;;;9.22;100.00;99554.56;6271758;22;45306;-83
2023/11/27 13:48:08;;;;;;;;;0.00;0.00;;;;;9.23;100.00;99553.63;6272112;22;45354;-83
2023/11/27 13:50:37;;;;;;;;;0.00;0.00;;;;;9.24;100.00;99547.53;6272567;22;45388;-83
2023/11/27 13:53:07;;;;;;;;;0.00;0.00;;;;;9.23;100.00;99546.72;6271146;22;46501;-85
2023/11/27 13:55:35;;;;;;;;;0.00;0.00;;;;;9.26;100.00;99540.53;6273438;22;45289;-83
2023/11/27 13:58:06;;;;;;;;;0.00;0.00;;;;;9.26;100.00;99536.16;6271259;22;45312;-83
2023/11/27 14:00:34;;;;;;;;;0.25;0.00;;;;;9.26;100.00;99538.78;6273706;22;45425;-83